Main page
METAR-TAF:

METAR-TAF

Airports :

Quimper–Bretagne Airport

Quimper, France

latitude: 47-58N, longitude: 004-10W, elevation: 92 m

Current weather observation

The report was made 27 minutes ago, at 23:30 UTC
Wind 5 kt from the North
Temperature 6°C
Humidity 93%
Pressure 1014 hPa
Visibility 10 km or more
Few clouds at a height of 3600 ft
Broken clouds at a height of 4200 ft
Broken clouds at a height of 4800 ft

METAR: LFRQ 172330Z AUTO 35005KT 9999 FEW036 BKN042 BKN048 06/05 Q1014

Time: 00:57 (23:57 UTC)

Forecast

The report was made 6 hours and 57 minutes ago, at 17:00 UTC
Forecast valid from 17 at 18 UTC to 18 at 18 UTC
Wind 4 kt from the North
Visibility 10 km or more
no clouds below 1500 m and no cumulonimbus
Probability 30% :
Temporary
from 17 at 18 UTC to 17 at 24 UTC
Scattered clouds at a height of 1500 ft, Towering cumulus.
light rain showers

TAF: LFRQ 171700Z 1718/1818 36004KT CAVOK PROB30 TEMPO 1718/1724 -SHRA SCT015TCU

Weather observations and forecasts of more than 4000 airports (METAR and TAF reports).

The available stations are represented by yellow and red dots on the map.

Hover mouse over dot to see the name of the station.

Then click to see weather observations and forecasts.

To change the map : click on the green buttons with a black cross to zoom in, on the green button with a dash to zoom out, or on the green arrows for adjacent maps.


METAR-TAF: